sensor_id;sensor_type;location;lat;lon;timestamp;temperature;humidity
6696;DHT22;3385;48.928;10.330;2023-02-18T00:00:16;10.20;99.90
6696;DHT22;3385;48.928;10.330;2023-02-18T00:02:44;10.30;99.90
6696;DHT22;3385;48.928;10.330;2023-02-18T00:05:10;10.00;99.90
6696;DHT22;3385;48.928;10.330;2023-02-18T00:07:37;10.40;99.90
6696;DHT22;3385;48.928;10.330;2023-02-18T00:10:06;10.20;99.90
6696;DHT22;3385;48.928;10.330;2023-02-18T00:12:32;10.20;99.90
6696;DHT22;3385;48.928;10.330;2023-02-18T00:14:58;9.90;99.90
6696;DHT22;3385;48.928;10.330;2023-02-18T00:17:25;10.10;99.90
6696;DHT22;3385;48.928;10.330;2023-02-18T00:19:50;8.70;99.90
6696;DHT22;3385;48.928;10.330;2023-02-18T00:22:16;10.10;99.90
6696;DHT22;3385;48.928;10.330;2023-02-18T00:24:42;10.40;99.90
6696;DHT22;3385;48.928;10.330;2023-02-18T00:27:08;10.20;99.90
6696;DHT22;3385;48.928;10.330;2023-02-18T00:29:34;10.20;99.90
6696;DHT22;3385;48.928;10.330;2023-02-18T00:32:00;10.00;99.90
6696;DHT22;3385;48.928;10.330;2023-02-18T00:34:25;9.90;99.90
6696;DHT22;3385;48.928;10.330;2023-02-18T00:36:51;10.30;99.90
6696;DHT22;3385;48.928;10.330;2023-02-18T00:39:17;10.10;99.90
6696;DHT22;3385;48.928;10.330;2023-02-18T00:41:43;10.10;99.90
6696;DHT22;3385;48.928;10.330;2023-02-18T00:44:10;10.10;99.90
6696;DHT22;3385;48.928;10.330;2023-02-18T00:46:36;10.50;99.90
6696;DHT22;3385;48.928;10.330;2023-02-18T00:49:03;10.10;99.90
6696;DHT22;3385;48.928;10.330;2023-02-18T00:51:30;10.10;99.90
6696;DHT22;3385;48.928;10.330;2023-02-18T00:53:56;10.20;99.90
6696;DHT22;3385;48.928;10.330;2023-02-18T00:56:22;10.50;99.90
6696;DHT22;3385;48.928;10.330;2023-02-18T00:58:48;10.00;99.90
6696;DHT22;3385;48.928;10.330;2023-02-18T01:01:14;10.20;99.90
6696;DHT22;3385;48.928;10.330;2023-02-18T01:03:41;9.80;99.90
6696;DHT22;3385;48.928;10.330;2023-02-18T01:06:07;10.00;99.90
6696;DHT22;3385;48.928;10.330;2023-02-18T01:08:35;10.00;99.90
6696;DHT22;3385;48.928;10.330;2023-02-18T01:11:01;9.90;99.90
6696;DHT22;3385;48.928;10.330;2023-02-18T01:13:28;9.90;99.90
6696;DHT22;3385;48.928;10.330;2023-02-18T01:15:54;10.10;99.90
6696;DHT22;3385;48.928;10.330;2023-02-18T01:18:20;9.80;99.90
6696;DHT22;3385;48.928;10.330;2023-02-18T01:20:46;9.80;99.90
6696;DHT22;3385;48.928;10.330;2023-02-18T01:23:13;9.80;99.90
6696;DHT22;3385;48.928;10.330;2023-02-18T01:25:40;10.20;99.90
6696;DHT22;3385;48.928;10.330;2023-02-18T01:28:07;9.90;99.90
6696;DHT22;3385;48.928;10.330;2023-02-18T01:30:33;9.70;99.90
6696;DHT22;3385;48.928;10.330;2023-02-18T01:33:00;9.60;99.90
6696;DHT22;3385;48.928;10.330;2023-02-18T01:35:25;9.60;99.90
6696;DHT22;3385;48.928;10.330;2023-02-18T01:37:51;9.50;99.90
6696;DHT22;3385;48.928;10.330;2023-02-18T01:40:20;9.70;99.90
6696;DHT22;3385;48.928;10.330;2023-02-18T01:42:47;9.70;99.90
6696;DHT22;3385;48.928;10.330;2023-02-18T01:48:12;9.90;99.90
6696;DHT22;3385;48.928;10.330;2023-02-18T01:51:06;9.70;99.90
6696;DHT22;3385;48.928;10.330;2023-02-18T01:53:44;9.90;99.90
6696;DHT22;3385;48.928;10.330;2023-02-18T01:56:15;9.50;99.90
6696;DHT22;3385;48.928;10.330;2023-02-18T01:58:44;9.60;99.90
6696;DHT22;3385;48.928;10.330;2023-02-18T02:01:10;9.60;99.90
6696;DHT22;3385;48.928;10.330;2023-02-18T02:03:36;9.20;99.90
6696;DHT22;3385;48.928;10.330;2023-02-18T02:06:04;9.40;99.90
6696;DHT22;3385;48.928;10.330;2023-02-18T02:08:31;10.20;99.90
6696;DHT22;3385;48.928;10.330;2023-02-18T02:13:54;9.40;99.90
6696;DHT22;3385;48.928;10.330;2023-02-18T02:16:50;9.60;99.90
6696;DHT22;3385;48.928;10.330;2023-02-18T02:24:59;9.40;99.90
6696;DHT22;3385;48.928;10.330;2023-02-18T02:37:58;9.50;99.90
6696;DHT22;3385;48.928;10.330;2023-02-18T02:46:30;9.40;99.90
6696;DHT22;3385;48.928;10.330;2023-02-18T02:49:06;9.50;99.90
6696;DHT22;3385;48.928;10.330;2023-02-18T02:51:56;9.50;99.90
6696;DHT22;3385;48.928;10.330;2023-02-18T02:54:25;9.40;99.90
6696;DHT22;3385;48.928;10.330;2023-02-18T02:57:07;9.40;99.90
6696;DHT22;3385;48.928;10.330;2023-02-18T02:59:35;9.50;99.90
6696;DHT22;3385;48.928;10.330;2023-02-18T03:13:56;9.60;99.90
6696;DHT22;3385;48.928;10.330;2023-02-18T03:21:56;9.20;99.90
6696;DHT22;3385;48.928;10.330;2023-02-18T03:24:29;9.20;99.90
6696;DHT22;3385;48.928;10.330;2023-02-18T03:29:36;10.00;99.90
6696;DHT22;3385;48.928;10.330;2023-02-18T03:32:06;10.10;99.90
6696;DHT22;3385;48.928;10.330;2023-02-18T03:34:39;9.50;99.90
6696;DHT22;3385;48.928;10.330;2023-02-18T03:37:05;9.60;99.90
6696;DHT22;3385;48.928;10.330;2023-02-18T03:39:34;9.50;99.90
6696;DHT22;3385;48.928;10.330;2023-02-18T03:42:01;9.50;99.90
6696;DHT22;3385;48.928;10.330;2023-02-18T03:44:26;9.70;99.90
6696;DHT22;3385;48.928;10.330;2023-02-18T03:46:52;9.60;99.90
6696;DHT22;3385;48.928;10.330;2023-02-18T03:49:18;9.60;99.90
6696;DHT22;3385;48.928;10.330;2023-02-18T03:51:44;9.60;99.90
6696;DHT22;3385;48.928;10.330;2023-02-18T03:54:11;9.80;99.90
6696;DHT22;3385;48.928;10.330;2023-02-18T03:56:39;9.60;99.90
6696;DHT22;3385;48.928;10.330;2023-02-18T03:59:05;9.60;99.90
6696;DHT22;3385;48.928;10.330;2023-02-18T04:01:31;9.60;99.90
6696;DHT22;3385;48.928;10.330;2023-02-18T04:03:57;9.90;99.90
6696;DHT22;3385;48.928;10.330;2023-02-18T04:06:23;9.50;99.90
6696;DHT22;3385;48.928;10.330;2023-02-18T04:08:49;10.40;99.90
6696;DHT22;3385;48.928;10.330;2023-02-18T04:11:15;9.60;99.90
6696;DHT22;3385;48.928;10.330;2023-02-18T04:13:41;9.60;99.90
6696;DHT22;3385;48.928;10.330;2023-02-18T04:16:07;9.60;99.90
6696;DHT22;3385;48.928;10.330;2023-02-18T04:18:33;9.90;99.90
6696;DHT22;3385;48.928;10.330;2023-02-18T04:20:59;9.90;99.90
6696;DHT22;3385;48.928;10.330;2023-02-18T04:23:25;9.80;99.90
6696;DHT22;3385;48.928;10.330;2023-02-18T04:25:51;9.70;99.90
6696;DHT22;3385;48.928;10.330;2023-02-18T04:28:17;10.00;99.90
6696;DHT22;3385;48.928;10.330;2023-02-18T04:30:44;9.70;99.90
6696;DHT22;3385;48.928;10.330;2023-02-18T04:33:10;9.80;99.90
6696;DHT22;3385;48.928;10.330;2023-02-18T04:35:36;10.00;99.90
6696;DHT22;3385;48.928;10.330;2023-02-18T04:38:03;9.70;99.90
6696;DHT22;3385;48.928;10.330;2023-02-18T04:40:29;9.90;99.90
6696;DHT22;3385;48.928;10.330;2023-02-18T04:42:56;9.70;99.90
6696;DHT22;3385;48.928;10.330;2023-02-18T04:45:23;9.50;99.90
6696;DHT22;3385;48.928;10.330;2023-02-18T04:47:48;9.70;99.90
6696;DHT22;3385;48.928;10.330;2023-02-18T04:50:14;9.80;99.90
6696;DHT22;3385;48.928;10.330;2023-02-18T04:52:40;9.80;99.90
6696;DHT22;3385;48.928;10.330;2023-02-18T04:55:06;9.70;99.90
6696;DHT22;3385;48.928;10.330;2023-02-18T04:57:32;9.80;99.90
6696;DHT22;3385;48.928;10.330;2023-02-18T04:59:58;10.30;99.90
6696;DHT22;3385;48.928;10.330;2023-02-18T05:02:24;9.80;99.90
6696;DHT22;3385;48.928;10.330;2023-02-18T05:04:49;9.90;99.90
6696;DHT22;3385;48.928;10.330;2023-02-18T05:07:15;9.90;99.90
6696;DHT22;3385;48.928;10.330;2023-02-18T05:09:42;10.10;99.90
6696;DHT22;3385;48.928;10.330;2023-02-18T05:12:08;9.90;99.90
6696;DHT22;3385;48.928;10.330;2023-02-18T05:14:33;9.80;99.90
6696;DHT22;3385;48.928;10.330;2023-02-18T05:16:59;9.80;99.90
6696;DHT22;3385;48.928;10.330;2023-02-18T05:19:25;10.20;99.90
6696;DHT22;3385;48.928;10.330;2023-02-18T05:21:51;9.80;99.90
6696;DHT22;3385;48.928;10.330;2023-02-18T05:24:16;10.00;99.90
6696;DHT22;3385;48.928;10.330;2023-02-18T05:26:42;9.80;99.90
6696;DHT22;3385;48.928;10.330;2023-02-18T05:29:08;9.90;99.90
6696;DHT22;3385;48.928;10.330;2023-02-18T05:31:34;10.00;99.90
6696;DHT22;3385;48.928;10.330;2023-02-18T05:33:59;10.10;99.90
6696;DHT22;3385;48.928;10.330;2023-02-18T05:36:25;9.70;99.90
6696;DHT22;3385;48.928;10.330;2023-02-18T05:38:51;10.00;99.90
6696;DHT22;3385;48.928;10.330;2023-02-18T05:41:17;10.00;99.90
6696;DHT22;3385;48.928;10.330;2023-02-18T05:43:42;10.20;99.90
6696;DHT22;3385;48.928;10.330;2023-02-18T05:46:27;9.90;99.90
6696;DHT22;3385;48.928;10.330;2023-02-18T05:48:52;9.80;99.90
6696;DHT22;3385;48.928;10.330;2023-02-18T05:51:18;9.80;99.90
6696;DHT22;3385;48.928;10.330;2023-02-18T05:53:44;9.80;99.90
6696;DHT22;3385;48.928;10.330;2023-02-18T05:56:10;9.80;99.90
6696;DHT22;3385;48.928;10.330;2023-02-18T05:58:36;9.80;99.90
6696;DHT22;3385;48.928;10.330;2023-02-18T06:01:02;9.80;99.90
6696;DHT22;3385;48.928;10.330;2023-02-18T06:03:27;9.80;99.90
6696;DHT22;3385;48.928;10.330;2023-02-18T06:05:53;9.90;99.90
6696;DHT22;3385;48.928;10.330;2023-02-18T06:08:19;9.90;99.90
6696;DHT22;3385;48.928;10.330;2023-02-18T06:10:45;10.00;99.90
6696;DHT22;3385;48.928;10.330;2023-02-18T06:13:11;9.70;99.90
6696;DHT22;3385;48.928;10.330;2023-02-18T06:15:38;9.70;99.90
6696;DHT22;3385;48.928;10.330;2023-02-18T06:18:04;9.80;99.90
6696;DHT22;3385;48.928;10.330;2023-02-18T06:20:30;10.00;99.90
6696;DHT22;3385;48.928;10.330;2023-02-18T06:22:56;9.90;99.90
6696;DHT22;3385;48.928;10.330;2023-02-18T06:25:21;9.90;99.90
6696;DHT22;3385;48.928;10.330;2023-02-18T06:27:47;9.70;99.90
6696;DHT22;3385;48.928;10.330;2023-02-18T06:30:13;9.70;99.90
6696;DHT22;3385;48.928;10.330;2023-02-18T06:32:39;10.10;99.90
6696;DHT22;3385;48.928;10.330;2023-02-18T06:35:06;12.70;99.90
6696;DHT22;3385;48.928;10.330;2023-02-18T06:37:32;5.90;99.90
6696;DHT22;3385;48.928;10.330;2023-02-18T06:39:58;9.80;99.90
6696;DHT22;3385;48.928;10.330;2023-02-18T06:42:23;9.80;99.90
6696;DHT22;3385;48.928;10.330;2023-02-18T06:44:49;9.90;99.90
6696;DHT22;3385;48.928;10.330;2023-02-18T06:47:15;9.90;99.90
6696;DHT22;3385;48.928;10.330;2023-02-18T06:49:41;9.70;99.90
6696;DHT22;3385;48.928;10.330;2023-02-18T06:52:06;9.90;99.90
6696;DHT22;3385;48.928;10.330;2023-02-18T06:54:33;9.90;99.90
6696;DHT22;3385;48.928;10.330;2023-02-18T06:56:59;9.60;99.90
6696;DHT22;3385;48.928;10.330;2023-02-18T06:59:25;9.50;99.90
6696;DHT22;3385;48.928;10.330;2023-02-18T07:01:51;6.50;99.90
6696;DHT22;3385;48.928;10.330;2023-02-18T07:04:17;9.70;99.90
6696;DHT22;3385;48.928;10.330;2023-02-18T07:06:42;9.70;99.90
6696;DHT22;3385;48.928;10.330;2023-02-18T07:09:08;9.70;99.90
6696;DHT22;3385;48.928;10.330;2023-02-18T07:11:34;9.70;99.90
6696;DHT22;3385;48.928;10.330;2023-02-18T07:14:00;9.80;99.90
6696;DHT22;3385;48.928;10.330;2023-02-18T07:16:25;9.90;99.90
6696;DHT22;3385;48.928;10.330;2023-02-18T07:18:51;9.90;99.90
6696;DHT22;3385;48.928;10.330;2023-02-18T07:21:17;9.60;99.90
6696;DHT22;3385;48.928;10.330;2023-02-18T07:23:43;10.00;99.90
6696;DHT22;3385;48.928;10.330;2023-02-18T07:26:13;10.00;99.90
6696;DHT22;3385;48.928;10.330;2023-02-18T07:28:39;10.10;99.90
6696;DHT22;3385;48.928;10.330;2023-02-18T07:31:06;10.10;99.90
6696;DHT22;3385;48.928;10.330;2023-02-18T07:33:32;10.50;99.90
6696;DHT22;3385;48.928;10.330;2023-02-18T07:36:00;10.10;99.90
6696;DHT22;3385;48.928;10.330;2023-02-18T07:38:26;13.20;99.90
6696;DHT22;3385;48.928;10.330;2023-02-18T07:40:53;12.30;99.90
6696;DHT22;3385;48.928;10.330;2023-02-18T07:43:19;10.60;99.90
6696;DHT22;3385;48.928;10.330;2023-02-18T07:45:46;10.20;99.90
6696;DHT22;3385;48.928;10.330;2023-02-18T07:48:13;10.60;99.90
6696;DHT22;3385;48.928;10.330;2023-02-18T07:50:40;10.30;99.90
6696;DHT22;3385;48.928;10.330;2023-02-18T07:53:06;10.40;99.90
6696;DHT22;3385;48.928;10.330;2023-02-18T07:55:32;10.40;99.90
6696;DHT22;3385;48.928;10.330;2023-02-18T07:58:24;10.60;99.90
6696;DHT22;3385;48.928;10.330;2023-02-18T08:00:51;10.80;99.90
6696;DHT22;3385;48.928;10.330;2023-02-18T08:03:19;11.00;99.90
6696;DHT22;3385;48.928;10.330;2023-02-18T08:05:49;10.70;99.90
6696;DHT22;3385;48.928;10.330;2023-02-18T08:08:18;11.10;99.90
6696;DHT22;3385;48.928;10.330;2023-02-18T08:10:45;10.90;99.90
6696;DHT22;3385;48.928;10.330;2023-02-18T08:13:11;10.60;99.90
6696;DHT22;3385;48.928;10.330;2023-02-18T08:15:39;10.80;99.90
6696;DHT22;3385;48.928;10.330;2023-02-18T08:18:07;8.50;99.90
6696;DHT22;3385;48.928;10.330;2023-02-18T08:20:37;11.10;99.90
6696;DHT22;3385;48.928;10.330;2023-02-18T08:23:04;10.80;99.90
6696;DHT22;3385;48.928;10.330;2023-02-18T08:25:30;11.10;99.90
6696;DHT22;3385;48.928;10.330;2023-02-18T08:27:57;10.80;99.90
6696;DHT22;3385;48.928;10.330;2023-02-18T08:30:24;11.10;99.90
6696;DHT22;3385;48.928;10.330;2023-02-18T08:32:51;11.20;99.90
6696;DHT22;3385;48.928;10.330;2023-02-18T08:35:16;11.10;99.90
6696;DHT22;3385;48.928;10.330;2023-02-18T08:37:42;11.10;99.90
6696;DHT22;3385;48.928;10.330;2023-02-18T08:40:09;11.50;99.90
6696;DHT22;3385;48.928;10.330;2023-02-18T08:42:36;11.90;99.90
6696;DHT22;3385;48.928;10.330;2023-02-18T08:45:02;11.50;99.90
6696;DHT22;3385;48.928;10.330;2023-02-18T08:47:29;11.50;99.90
6696;DHT22;3385;48.928;10.330;2023-02-18T08:49:55;11.60;99.90
6696;DHT22;3385;48.928;10.330;2023-02-18T08:52:22;11.50;99.90
6696;DHT22;3385;48.928;10.330;2023-02-18T08:54:47;12.10;99.90
6696;DHT22;3385;48.928;10.330;2023-02-18T08:57:13;11.60;99.90
6696;DHT22;3385;48.928;10.330;2023-02-18T08:59:39;11.90;99.90
6696;DHT22;3385;48.928;10.330;2023-02-18T09:02:05;10.30;99.90
6696;DHT22;3385;48.928;10.330;2023-02-18T09:04:34;11.70;99.90
6696;DHT22;3385;48.928;10.330;2023-02-18T09:07:00;11.90;99.90
6696;DHT22;3385;48.928;10.330;2023-02-18T09:09:27;11.90;99.90
6696;DHT22;3385;48.928;10.330;2023-02-18T09:11:53;12.00;99.90
6696;DHT22;3385;48.928;10.330;2023-02-18T09:14:18;11.90;99.90
6696;DHT22;3385;48.928;10.330;2023-02-18T09:16:44;14.10;99.90
6696;DHT22;3385;48.928;10.330;2023-02-18T09:19:10;12.10;99.90
6696;DHT22;3385;48.928;10.330;2023-02-18T09:21:36;11.90;99.90
6696;DHT22;3385;48.928;10.330;2023-02-18T09:24:02;11.90;99.90
6696;DHT22;3385;48.928;10.330;2023-02-18T09:26:28;11.80;99.90
6696;DHT22;3385;48.928;10.330;2023-02-18T09:28:55;12.10;99.90
6696;DHT22;3385;48.928;10.330;2023-02-18T09:31:23;12.00;99.90
6696;DHT22;3385;48.928;10.330;2023-02-18T09:33:56;12.10;99.90
6696;DHT22;3385;48.928;10.330;2023-02-18T09:36:23;12.30;99.90
6696;DHT22;3385;48.928;10.330;2023-02-18T09:38:49;12.20;99.90
6696;DHT22;3385;48.928;10.330;2023-02-18T09:41:37;12.00;99.90
6696;DHT22;3385;48.928;10.330;2023-02-18T09:44:19;12.50;99.90
6696;DHT22;3385;48.928;10.330;2023-02-18T09:47:02;12.60;99.90
6696;DHT22;3385;48.928;10.330;2023-02-18T09:49:34;13.00;99.90
6696;DHT22;3385;48.928;10.330;2023-02-18T09:54:39;13.00;99.90
6696;DHT22;3385;48.928;10.330;2023-02-18T09:57:06;13.20;99.90
6696;DHT22;3385;48.928;10.330;2023-02-18T09:59:40;13.20;99.90
6696;DHT22;3385;48.928;10.330;2023-02-18T10:02:09;11.60;99.90
6696;DHT22;3385;48.928;10.330;2023-02-18T10:04:41;12.90;99.90
6696;DHT22;3385;48.928;10.330;2023-02-18T10:07:18;13.10;99.90
6696;DHT22;3385;48.928;10.330;2023-02-18T10:09:48;12.90;99.90
6696;DHT22;3385;48.928;10.330;2023-02-18T10:12:20;13.10;99.90
6696;DHT22;3385;48.928;10.330;2023-02-18T10:14:56;13.30;99.90
6696;DHT22;3385;48.928;10.330;2023-02-18T10:17:25;13.20;99.90
6696;DHT22;3385;48.928;10.330;2023-02-18T10:19:53;11.70;99.90
6696;DHT22;3385;48.928;10.330;2023-02-18T10:22:21;13.20;99.90
6696;DHT22;3385;48.928;10.330;2023-02-18T10:24:51;13.10;99.90
6696;DHT22;3385;48.928;10.330;2023-02-18T10:27:24;13.10;99.90
6696;DHT22;3385;48.928;10.330;2023-02-18T10:29:50;13.00;99.90
6696;DHT22;3385;48.928;10.330;2023-02-18T10:32:26;11.50;99.90
6696;DHT22;3385;48.928;10.330;2023-02-18T10:35:02;12.90;99.90
6696;DHT22;3385;48.928;10.330;2023-02-18T10:37:45;12.70;99.90
6696;DHT22;3385;48.928;10.330;2023-02-18T10:51:21;12.60;99.90
6696;DHT22;3385;48.928;10.330;2023-02-18T10:53:50;12.60;99.90
6696;DHT22;3385;48.928;10.330;2023-02-18T10:56:39;12.50;99.90
6696;DHT22;3385;48.928;10.330;2023-02-18T10:59:18;12.70;99.90
6696;DHT22;3385;48.928;10.330;2023-02-18T11:01:46;13.40;99.90
6696;DHT22;3385;48.928;10.330;2023-02-18T11:04:20;13.40;99.90
6696;DHT22;3385;48.928;10.330;2023-02-18T11:06:51;10.80;99.90
6696;DHT22;3385;48.928;10.330;2023-02-18T11:09:38;13.40;99.90
6696;DHT22;3385;48.928;10.330;2023-02-18T11:17:31;14.40;99.90
6696;DHT22;3385;48.928;10.330;2023-02-18T11:19:59;14.00;99.90
6696;DHT22;3385;48.928;10.330;2023-02-18T11:22:34;13.60;99.90
6696;DHT22;3385;48.928;10.330;2023-02-18T11:25:30;13.40;99.90
6696;DHT22;3385;48.928;10.330;2023-02-18T11:30:49;13.80;99.90
6696;DHT22;3385;48.928;10.330;2023-02-18T11:33:19;14.30;99.90
6696;DHT22;3385;48.928;10.330;2023-02-18T11:35:53;14.40;99.90
6696;DHT22;3385;48.928;10.330;2023-02-18T11:41:14;14.30;99.90
6696;DHT22;3385;48.928;10.330;2023-02-18T11:43:42;14.30;99.90
6696;DHT22;3385;48.928;10.330;2023-02-18T11:46:19;14.30;99.90
6696;DHT22;3385;48.928;10.330;2023-02-18T11:48:46;14.10;99.90
6696;DHT22;3385;48.928;10.330;2023-02-18T11:56:39;13.20;99.90
6696;DHT22;3385;48.928;10.330;2023-02-18T11:59:05;13.20;99.90
6696;DHT22;3385;48.928;10.330;2023-02-18T12:01:46;13.30;99.90
6696;DHT22;3385;48.928;10.330;2023-02-18T12:04:24;13.20;99.90
6696;DHT22;3385;48.928;10.330;2023-02-18T12:10:03;13.10;99.90
6696;DHT22;3385;48.928;10.330;2023-02-18T12:12:47;13.10;99.90
6696;DHT22;3385;48.928;10.330;2023-02-18T12:15:23;13.40;99.90
6696;DHT22;3385;48.928;10.330;2023-02-18T12:18:19;13.30;99.90
6696;DHT22;3385;48.928;10.330;2023-02-18T12:21:27;13.20;99.90
6696;DHT22;3385;48.928;10.330;2023-02-18T12:57:15;12.60;99.90
6696;DHT22;3385;48.928;10.330;2023-02-18T13:00:03;12.80;99.90
6696;DHT22;3385;48.928;10.330;2023-02-18T13:03:07;12.60;99.90
6696;DHT22;3385;48.928;10.330;2023-02-18T13:05:43;12.90;99.90
6696;DHT22;3385;48.928;10.330;2023-02-18T13:13:32;12.70;99.90
6696;DHT22;3385;48.928;10.330;2023-02-18T13:16:03;13.90;99.90
6696;DHT22;3385;48.928;10.330;2023-02-18T13:18:39;12.90;99.90
6696;DHT22;3385;48.928;10.330;2023-02-18T13:21:11;12.70;99.90
6696;DHT22;3385;48.928;10.330;2023-02-18T13:24:10;12.80;99.90
6696;DHT22;3385;48.928;10.330;2023-02-18T13:26:38;13.30;99.90
6696;DHT22;3385;48.928;10.330;2023-02-18T13:29:31;12.90;99.90
6696;DHT22;3385;48.928;10.330;2023-02-18T13:35:20;13.10;99.90
6696;DHT22;3385;48.928;10.330;2023-02-18T13:40:32;13.80;99.90
6696;DHT22;3385;48.928;10.330;2023-02-18T13:43:29;13.70;99.90
6696;DHT22;3385;48.928;10.330;2023-02-18T13:48:52;16.00;99.90
6696;DHT22;3385;48.928;10.330;2023-02-18T13:51:32;16.90;99.90
6696;DHT22;3385;48.928;10.330;2023-02-18T13:54:24;17.60;99.90
6696;DHT22;3385;48.928;10.330;2023-02-18T13:57:20;17.40;99.90
6696;DHT22;3385;48.928;10.330;2023-02-18T13:59:48;16.40;99.90
6696;DHT22;3385;48.928;10.330;2023-02-18T14:09:50;14.60;99.90
6696;DHT22;3385;48.928;10.330;2023-02-18T14:12:39;14.60;99.90
6696;DHT22;3385;48.928;10.330;2023-02-18T14:18:09;13.60;99.90
6696;DHT22;3385;48.928;10.330;2023-02-18T14:28:43;12.70;99.90
6696;DHT22;3385;48.928;10.330;2023-02-18T14:31:32;12.60;99.90
6696;DHT22;3385;48.928;10.330;2023-02-18T14:37:00;12.70;99.90
6696;DHT22;3385;48.928;10.330;2023-02-18T14:42:47;12.90;99.90
6696;DHT22;3385;48.928;10.330;2023-02-18T14:50:15;13.40;99.90
6696;DHT22;3385;48.928;10.330;2023-02-18T14:52:50;13.10;99.90
6696;DHT22;3385;48.928;10.330;2023-02-18T14:55:32;14.80;99.90
6696;DHT22;3385;48.928;10.330;2023-02-18T14:58:05;13.50;99.90
6696;DHT22;3385;48.928;10.330;2023-02-18T15:00:35;13.20;99.90
6696;DHT22;3385;48.928;10.330;2023-02-18T15:03:03;13.00;99.90
6696;DHT22;3385;48.928;10.330;2023-02-18T15:05:37;13.10;99.90
6696;DHT22;3385;48.928;10.330;2023-02-18T15:08:05;13.00;99.90
6696;DHT22;3385;48.928;10.330;2023-02-18T15:10:37;14.40;99.90
6696;DHT22;3385;48.928;10.330;2023-02-18T15:13:06;14.60;99.90
6696;DHT22;3385;48.928;10.330;2023-02-18T15:15:33;14.50;99.90
6696;DHT22;3385;48.928;10.330;2023-02-18T15:18:02;14.20;99.90
6696;DHT22;3385;48.928;10.330;2023-02-18T15:20:32;14.20;99.90
6696;DHT22;3385;48.928;10.330;2023-02-18T15:22:58;13.80;99.90
6696;DHT22;3385;48.928;10.330;2023-02-18T15:25:25;13.30;99.90
6696;DHT22;3385;48.928;10.330;2023-02-18T15:27:51;13.20;99.90
6696;DHT22;3385;48.928;10.330;2023-02-18T15:30:29;13.00;99.90
6696;DHT22;3385;48.928;10.330;2023-02-18T15:32:58;12.90;99.90
6696;DHT22;3385;48.928;10.330;2023-02-18T15:35:30;12.60;99.90
6696;DHT22;3385;48.928;10.330;2023-02-18T15:37:59;12.50;99.90
6696;DHT22;3385;48.928;10.330;2023-02-18T15:40:29;12.50;99.90
6696;DHT22;3385;48.928;10.330;2023-02-18T15:42:58;12.40;99.90
6696;DHT22;3385;48.928;10.330;2023-02-18T15:47:59;12.20;99.90
6696;DHT22;3385;48.928;10.330;2023-02-18T15:50:31;12.10;99.90
6696;DHT22;3385;48.928;10.330;2023-02-18T15:53:03;12.00;99.90
6696;DHT22;3385;48.928;10.330;2023-02-18T15:55:37;12.20;99.90
6696;DHT22;3385;48.928;10.330;2023-02-18T16:03:24;12.00;99.90
6696;DHT22;3385;48.928;10.330;2023-02-18T16:06:06;11.80;99.90
6696;DHT22;3385;48.928;10.330;2023-02-18T16:08:33;11.70;99.90
6696;DHT22;3385;48.928;10.330;2023-02-18T16:11:07;11.80;99.90
6696;DHT22;3385;48.928;10.330;2023-02-18T16:13:34;12.10;99.90
6696;DHT22;3385;48.928;10.330;2023-02-18T16:16:01;11.90;99.90
6696;DHT22;3385;48.928;10.330;2023-02-18T16:18:28;11.60;99.90
6696;DHT22;3385;48.928;10.330;2023-02-18T16:21:03;11.80;99.90
6696;DHT22;3385;48.928;10.330;2023-02-18T16:23:40;11.80;99.90
6696;DHT22;3385;48.928;10.330;2023-02-18T16:26:22;11.60;99.90
6696;DHT22;3385;48.928;10.330;2023-02-18T16:28:50;11.70;99.90
6696;DHT22;3385;48.928;10.330;2023-02-18T16:31:16;11.50;99.90
6696;DHT22;3385;48.928;10.330;2023-02-18T16:33:42;11.40;99.90
6696;DHT22;3385;48.928;10.330;2023-02-18T16:36:13;11.30;99.90
6696;DHT22;3385;48.928;10.330;2023-02-18T16:38:43;11.60;99.90
6696;DHT22;3385;48.928;10.330;2023-02-18T16:41:11;11.40;99.90
6696;DHT22;3385;48.928;10.330;2023-02-18T16:43:38;11.30;99.90
6696;DHT22;3385;48.928;10.330;2023-02-18T16:46:12;11.20;99.90
6696;DHT22;3385;48.928;10.330;2023-02-18T16:48:40;11.40;99.90
6696;DHT22;3385;48.928;10.330;2023-02-18T16:51:23;11.20;99.90
6696;DHT22;3385;48.928;10.330;2023-02-18T16:53:50;11.10;99.90
6696;DHT22;3385;48.928;10.330;2023-02-18T16:56:19;11.40;99.90
6696;DHT22;3385;48.928;10.330;2023-02-18T16:58:45;11.00;99.90
6696;DHT22;3385;48.928;10.330;2023-02-18T17:01:26;11.10;99.90
6696;DHT22;3385;48.928;10.330;2023-02-18T17:03:53;11.30;99.90
6696;DHT22;3385;48.928;10.330;2023-02-18T17:06:20;11.00;99.90
6696;DHT22;3385;48.928;10.330;2023-02-18T17:08:46;11.40;99.90
6696;DHT22;3385;48.928;10.330;2023-02-18T17:11:24;10.90;99.90
6696;DHT22;3385;48.928;10.330;2023-02-18T17:13:52;10.90;99.90
6696;DHT22;3385;48.928;10.330;2023-02-18T17:16:19;11.10;99.90
6696;DHT22;3385;48.928;10.330;2023-02-18T17:18:46;11.20;99.90
6696;DHT22;3385;48.928;10.330;2023-02-18T17:21:14;11.50;99.90
6696;DHT22;3385;48.928;10.330;2023-02-18T17:23:40;11.10;99.90
6696;DHT22;3385;48.928;10.330;2023-02-18T17:28:41;11.00;99.90
6696;DHT22;3385;48.928;10.330;2023-02-18T17:31:15;10.90;99.90
6696;DHT22;3385;48.928;10.330;2023-02-18T17:33:43;11.00;99.90
6696;DHT22;3385;48.928;10.330;2023-02-18T17:36:10;10.90;99.90
6696;DHT22;3385;48.928;10.330;2023-02-18T17:38:36;10.90;99.90
6696;DHT22;3385;48.928;10.330;2023-02-18T17:41:02;10.40;99.90
6696;DHT22;3385;48.928;10.330;2023-02-18T17:43:29;11.00;99.90
6696;DHT22;3385;48.928;10.330;2023-02-18T17:45:56;10.60;99.90
6696;DHT22;3385;48.928;10.330;2023-02-18T17:48:23;11.00;99.90
6696;DHT22;3385;48.928;10.330;2023-02-18T17:50:50;10.60;99.90
6696;DHT22;3385;48.928;10.330;2023-02-18T17:53:16;10.60;99.90
6696;DHT22;3385;48.928;10.330;2023-02-18T17:55:44;11.50;99.90
6696;DHT22;3385;48.928;10.330;2023-02-18T17:58:12;10.30;99.90
6696;DHT22;3385;48.928;10.330;2023-02-18T18:00:41;10.20;99.90
6696;DHT22;3385;48.928;10.330;2023-02-18T18:03:10;10.10;99.90
6696;DHT22;3385;48.928;10.330;2023-02-18T18:05:40;10.20;99.90
6696;DHT22;3385;48.928;10.330;2023-02-18T18:08:06;10.00;99.90
6696;DHT22;3385;48.928;10.330;2023-02-18T18:10:38;10.00;99.90
6696;DHT22;3385;48.928;10.330;2023-02-18T18:13:07;10.00;99.90
6696;DHT22;3385;48.928;10.330;2023-02-18T18:15:42;9.90;99.90
6696;DHT22;3385;48.928;10.330;2023-02-18T18:18:09;9.70;99.90
6696;DHT22;3385;48.928;10.330;2023-02-18T18:20:37;9.50;99.90
6696;DHT22;3385;48.928;10.330;2023-02-18T18:23:05;9.20;99.90
6696;DHT22;3385;48.928;10.330;2023-02-18T18:25:46;9.20;99.90
6696;DHT22;3385;48.928;10.330;2023-02-18T18:28:12;9.30;99.90
6696;DHT22;3385;48.928;10.330;2023-02-18T18:30:41;9.20;99.90
6696;DHT22;3385;48.928;10.330;2023-02-18T18:35:46;8.90;99.90
6696;DHT22;3385;48.928;10.330;2023-02-18T18:38:15;8.70;99.90
6696;DHT22;3385;48.928;10.330;2023-02-18T18:40:41;8.60;99.90
6696;DHT22;3385;48.928;10.330;2023-02-18T18:45:44;9.20;99.90
6696;DHT22;3385;48.928;10.330;2023-02-18T18:48:10;8.60;99.90
6696;DHT22;3385;48.928;10.330;2023-02-18T18:50:36;8.40;99.90
6696;DHT22;3385;48.928;10.330;2023-02-18T18:53:04;8.40;99.90
6696;DHT22;3385;48.928;10.330;2023-02-18T18:55:37;9.10;99.90
6696;DHT22;3385;48.928;10.330;2023-02-18T18:58:03;8.30;99.90
6696;DHT22;3385;48.928;10.330;2023-02-18T19:00:37;8.60;99.90